Hannibal, NY

9:44 PM EST on December 19, 2014 (GMT -0500)
Western Oswego County | Change Station
CLOSE
Current Station
Personal Weather Station
Location: Hannibal, NY
Elevation: 328 ft
Nearby Weather Stations

Elev 328 ft 43.36 °N, 76.60 °W | Updated 1 minute ago

Overcast
Overcast
27.0 °F
Feels Like 27 °F
N
0.0
Wind Variable Wind from NNE

Today
High -- | Low -- °F
--% Chance of Precip.
Yesterday
High -- | Low -- °F
Precip. -- in
7:34 AM 4:32 PM
Waning Crescent, 5% visible
Pressure 30.25 in
Visibility 10.0 miles
Clouds Overcast 2000 ft
Windchill 27 °F
Dew Point 24 °F
Humidity 87%
Rainfall 0.00 in
Snow Depth Not available.
UV 0 out of 12
Pollen .10 out of 12
Air Quality Not available.
Flu Activity Not available.
METAR KFZY 200154Z AUTO 00000KT 10SM OVC020 M02/M07 A3022 RMK AO2 SLP241 T10221072

More Conditions Fewer Conditions

Pressure 30.25 in
Visibility 10.0 miles
Clouds Overcast 2000 ft
Windchill 27 °F
Dew Point 24 °F
Humidity 87%
Rainfall 0.00 in
Snow Depth Not available.
UV 0 out of 12
Pollen .10 out of 12
Air Quality Not available.
Flu Activity Not available.
METAR KFZY 200154Z AUTO 00000KT 10SM OVC020 M02/M07 A3022 RMK AO2 SLP241 T10221072

More Conditions Fewer Conditions

10-Day Weather Forecast

Almanac

Astronomy

Dec. 19, 2014 Rise Set
Actual Time
Civil Twilight
Nautical Twilight
Astronomical Twilight
Moon
Length of Visible Light
Length of Day
Tomorrow will be .
, % of the Moon is Illuminated

Today's Extremes

State Highs State Lows

Community

WunderPhotos

Upload Photos

1,779,116 photos uploaded!

WunderBlogs® & News

Nearby

Air Quality

  Air Quality AQ Index Pollutant
Not available.

Snow Depth

Station Depth Elevation

Earthquake Activity

City Distance Mag. Time & Date
Minimum magnitude displayed is 2.5.

Coastal Water Temperatures

Place Temperature

Nearby Weather Stations